Strona główna
METAR-TAF:

METAR-TAF

Lotnisko :

Port lotniczy Larnaka

Larnaka, Cypr

Szerokość geograficzna: 34-53N, Długość geograficzna: 033-38E, wysokość: 2 m

Aktualna obserwacja pogody

Raport powstał 18 minut temu, godzina 22:30 UTC
Wiatr 3 kt od zachodnio-północny zachód
Temperatura 14°C
Wilgotność 88%
Ciśnienie 1016 hPa
Widzialność 10 km lub więcej
Rozproszone chmury na wysokości 2800 ft

METAR: LCLK 062230Z 29003KT 9999 SCT028 14/12 Q1016 NOSIG

czas: 01:48 (22:48 UTC)

Prognoza

Raport powstał 5 godziny i 18 minut temu, godzina 17:30 UTC
Prognoza ważna od 06 godzina 18 UTC do 07 godzina 18 UTC
Wiatr 5 kt od północno-północny zachód
Widzialność 10 km lub więcej
Mało chmury na wysokości 2000 ft
Stopniowe zmiany
od 07 godzina 08 UTC do 07 godzina 10 UTC
Wiatr 14 kt od południowo-południowy zachód
Stopniowe zmiany
od 07 godzina 15 UTC do 07 godzina 17 UTC
Wiatr 5 kt od zachodnio-północny zachód

TAF: LCLK 061730Z 0618/0718 33005KT 9999 FEW020 BECMG 0708/0710 20014KT BECMG 0715/0717 30005KT

Obserwacja i prognoza pogody dla ponad 4000 lotnisk (raport METAR i TAF).

Dostępne stacje oznaczono żółtymi i czerwonymi punktami na mapie.

Najedź kursorem aby zobaczyć nazwę stacji.

Kliknij aby zobaczyć obserwacje i prognozy pogody.

Aby zmienić mapę: kliknij na zielony przycisk z czarnym krzyżykiem, aby powiększyć; na zielony przycisk z myślnikiem, aby pomniejszyć; na zielone strzałki, aby przejść do map sąsiednich.


METAR-TAF: